sensor_id;sensor_type;location;lat;lon;timestamp;P1;durP1;ratioP1;P2;durP2;ratioP2
14001;SDS011;7076;51.280;12.584;2023-01-28T00:04:06;2.87;;;2.00;;
14001;SDS011;7076;51.280;12.584;2023-01-28T00:09:09;4.57;;;1.97;;
14001;SDS011;7076;51.280;12.584;2023-01-28T00:14:13;4.53;;;2.07;;
14001;SDS011;7076;51.280;12.584;2023-01-28T00:19:16;2.87;;;2.10;;
14001;SDS011;7076;51.280;12.584;2023-01-28T00:24:19;2.03;;;1.70;;
14001;SDS011;7076;51.280;12.584;2023-01-28T00:29:23;3.50;;;1.90;;
14001;SDS011;7076;51.280;12.584;2023-01-28T00:34:26;2.80;;;1.63;;
14001;SDS011;7076;51.280;12.584;2023-01-28T00:39:29;2.47;;;1.70;;
14001;SDS011;7076;51.280;12.584;2023-01-28T00:44:35;5.30;;;1.83;;
14001;SDS011;7076;51.280;12.584;2023-01-28T00:49:39;2.60;;;1.97;;
14001;SDS011;7076;51.280;12.584;2023-01-28T00:54:42;2.60;;;1.50;;
14001;SDS011;7076;51.280;12.584;2023-01-28T00:59:46;4.27;;;1.57;;
14001;SDS011;7076;51.280;12.584;2023-01-28T01:04:49;4.93;;;1.83;;
14001;SDS011;7076;51.280;12.584;2023-01-28T01:09:59;3.40;;;1.43;;
14001;SDS011;7076;51.280;12.584;2023-01-28T01:15:05;1.40;;;1.30;;
14001;SDS011;7076;51.280;12.584;2023-01-28T01:20:11;2.83;;;1.70;;
14001;SDS011;7076;51.280;12.584;2023-01-28T01:25:16;3.07;;;1.47;;
14001;SDS011;7076;51.280;12.584;2023-01-28T01:30:22;2.60;;;1.53;;
14001;SDS011;7076;51.280;12.584;2023-01-28T01:35:26;3.70;;;1.30;;
14001;SDS011;7076;51.280;12.584;2023-01-28T01:40:29;1.60;;;1.10;;
14001;SDS011;7076;51.280;12.584;2023-01-28T01:45:35;5.57;;;2.07;;
14001;SDS011;7076;51.280;12.584;2023-01-28T01:50:38;2.33;;;1.53;;
14001;SDS011;7076;51.280;12.584;2023-01-28T01:55:44;3.97;;;1.60;;
14001;SDS011;7076;51.280;12.584;2023-01-28T02:00:52;1.80;;;1.47;;
14001;SDS011;7076;51.280;12.584;2023-01-28T02:05:54;3.67;;;1.80;;
14001;SDS011;7076;51.280;12.584;2023-01-28T02:10:58;1.90;;;1.37;;
14001;SDS011;7076;51.280;12.584;2023-01-28T02:16:04;3.57;;;1.70;;
14001;SDS011;7076;51.280;12.584;2023-01-28T02:21:14;3.10;;;1.57;;
14001;SDS011;7076;51.280;12.584;2023-01-28T02:26:37;3.43;;;1.77;;
14001;SDS011;7076;51.280;12.584;2023-01-28T02:31:53;3.50;;;1.97;;
14001;SDS011;7076;51.280;12.584;2023-01-28T02:36:59;6.40;;;1.50;;
14001;SDS011;7076;51.280;12.584;2023-01-28T02:42:07;4.27;;;2.00;;
14001;SDS011;7076;51.280;12.584;2023-01-28T02:47:15;2.57;;;1.70;;
14001;SDS011;7076;51.280;12.584;2023-01-28T02:52:43;5.13;;;1.67;;
14001;SDS011;7076;51.280;12.584;2023-01-28T02:58:12;5.03;;;2.17;;
14001;SDS011;7076;51.280;12.584;2023-01-28T03:03:22;2.13;;;1.50;;
14001;SDS011;7076;51.280;12.584;2023-01-28T03:08:30;6.20;;;2.07;;
14001;SDS011;7076;51.280;12.584;2023-01-28T03:13:53;2.47;;;1.57;;
14001;SDS011;7076;51.280;12.584;2023-01-28T03:19:14;3.90;;;1.90;;
14001;SDS011;7076;51.280;12.584;2023-01-28T03:24:37;5.13;;;1.97;;
14001;SDS011;7076;51.280;12.584;2023-01-28T03:30:02;2.53;;;1.80;;
14001;SDS011;7076;51.280;12.584;2023-01-28T03:35:28;4.87;;;2.00;;
14001;SDS011;7076;51.280;12.584;2023-01-28T03:40:53;3.77;;;1.67;;
14001;SDS011;7076;51.280;12.584;2023-01-28T03:45:57;2.83;;;1.50;;
14001;SDS011;7076;51.280;12.584;2023-01-28T03:51:02;4.90;;;1.80;;
14001;SDS011;7076;51.280;12.584;2023-01-28T03:56:06;4.53;;;1.47;;
14001;SDS011;7076;51.280;12.584;2023-01-28T04:01:13;4.53;;;1.60;;
14001;SDS011;7076;51.280;12.584;2023-01-28T04:06:17;3.20;;;1.20;;
14001;SDS011;7076;51.280;12.584;2023-01-28T04:11:37;2.17;;;1.63;;
14001;SDS011;7076;51.280;12.584;2023-01-28T04:16:41;2.10;;;1.27;;
14001;SDS011;7076;51.280;12.584;2023-01-28T04:21:46;3.00;;;1.40;;
14001;SDS011;7076;51.280;12.584;2023-01-28T04:26:49;5.97;;;1.80;;
14001;SDS011;7076;51.280;12.584;2023-01-28T04:31:52;4.20;;;1.30;;
14001;SDS011;7076;51.280;12.584;2023-01-28T04:37:35;4.33;;;1.37;;
14001;SDS011;7076;51.280;12.584;2023-01-28T04:42:51;4.67;;;1.50;;
14001;SDS011;7076;51.280;12.584;2023-01-28T04:48:04;1.97;;;1.30;;
14001;SDS011;7076;51.280;12.584;2023-01-28T04:53:37;2.77;;;1.50;;
14001;SDS011;7076;51.280;12.584;2023-01-28T04:58:53;2.37;;;1.50;;
14001;SDS011;7076;51.280;12.584;2023-01-28T05:03:56;1.97;;;1.43;;
14001;SDS011;7076;51.280;12.584;2023-01-28T05:09:03;3.00;;;1.77;;
14001;SDS011;7076;51.280;12.584;2023-01-28T05:14:06;3.13;;;1.40;;
14001;SDS011;7076;51.280;12.584;2023-01-28T05:19:16;4.10;;;1.47;;
14001;SDS011;7076;51.280;12.584;2023-01-28T05:24:21;2.90;;;1.80;;
14001;SDS011;7076;51.280;12.584;2023-01-28T05:29:24;2.43;;;1.33;;
14001;SDS011;7076;51.280;12.584;2023-01-28T05:34:27;3.70;;;1.73;;
14001;SDS011;7076;51.280;12.584;2023-01-28T05:39:34;5.73;;;1.87;;
14001;SDS011;7076;51.280;12.584;2023-01-28T05:44:37;3.47;;;1.50;;
14001;SDS011;7076;51.280;12.584;2023-01-28T05:49:48;2.73;;;1.80;;
14001;SDS011;7076;51.280;12.584;2023-01-28T05:55:18;1.80;;;1.63;;
14001;SDS011;7076;51.280;12.584;2023-01-28T06:00:21;3.47;;;1.80;;
14001;SDS011;7076;51.280;12.584;2023-01-28T06:05:25;2.57;;;1.47;;
14001;SDS011;7076;51.280;12.584;2023-01-28T06:10:29;4.30;;;1.80;;
14001;SDS011;7076;51.280;12.584;2023-01-28T06:15:32;2.90;;;1.83;;
14001;SDS011;7076;51.280;12.584;2023-01-28T06:20:47;4.73;;;1.70;;
14001;SDS011;7076;51.280;12.584;2023-01-28T06:25:53;3.00;;;1.67;;
14001;SDS011;7076;51.280;12.584;2023-01-28T06:30:57;3.20;;;1.63;;
14001;SDS011;7076;51.280;12.584;2023-01-28T06:36:01;2.13;;;1.33;;
14001;SDS011;7076;51.280;12.584;2023-01-28T06:41:05;4.27;;;1.80;;
14001;SDS011;7076;51.280;12.584;2023-01-28T06:46:08;2.90;;;1.53;;
14001;SDS011;7076;51.280;12.584;2023-01-28T06:51:11;5.50;;;1.80;;
14001;SDS011;7076;51.280;12.584;2023-01-28T06:56:15;7.03;;;5.27;;
14001;SDS011;7076;51.280;12.584;2023-01-28T07:01:18;2.93;;;1.80;;
14001;SDS011;7076;51.280;12.584;2023-01-28T07:06:21;3.80;;;2.20;;
14001;SDS011;7076;51.280;12.584;2023-01-28T07:11:25;3.93;;;1.47;;
14001;SDS011;7076;51.280;12.584;2023-01-28T07:16:33;2.43;;;1.20;;
14001;SDS011;7076;51.280;12.584;2023-01-28T07:21:36;2.70;;;1.50;;
14001;SDS011;7076;51.280;12.584;2023-01-28T07:26:40;4.13;;;2.87;;
14001;SDS011;7076;51.280;12.584;2023-01-28T07:31:43;2.80;;;1.93;;
14001;SDS011;7076;51.280;12.584;2023-01-28T07:36:46;2.90;;;1.30;;
14001;SDS011;7076;51.280;12.584;2023-01-28T07:41:50;1.67;;;1.30;;
14001;SDS011;7076;51.280;12.584;2023-01-28T07:47:13;3.10;;;1.60;;
14001;SDS011;7076;51.280;12.584;2023-01-28T07:52:16;2.87;;;1.77;;
14001;SDS011;7076;51.280;12.584;2023-01-28T07:57:20;2.50;;;1.47;;
14001;SDS011;7076;51.280;12.584;2023-01-28T08:02:24;3.40;;;1.50;;
14001;SDS011;7076;51.280;12.584;2023-01-28T08:07:27;2.67;;;1.77;;
14001;SDS011;7076;51.280;12.584;2023-01-28T08:12:31;2.33;;;1.50;;
14001;SDS011;7076;51.280;12.584;2023-01-28T08:17:34;10.27;;;4.57;;
14001;SDS011;7076;51.280;12.584;2023-01-28T08:22:36;4.27;;;2.90;;
14001;SDS011;7076;51.280;12.584;2023-01-28T08:27:41;3.50;;;1.90;;
14001;SDS011;7076;51.280;12.584;2023-01-28T08:32:43;1.90;;;1.27;;
14001;SDS011;7076;51.280;12.584;2023-01-28T08:37:46;2.83;;;1.60;;
14001;SDS011;7076;51.280;12.584;2023-01-28T08:42:51;2.30;;;1.77;;
14001;SDS011;7076;51.280;12.584;2023-01-28T08:47:55;4.97;;;1.47;;
14001;SDS011;7076;51.280;12.584;2023-01-28T08:52:59;4.20;;;1.50;;
14001;SDS011;7076;51.280;12.584;2023-01-28T08:58:05;4.07;;;1.40;;
14001;SDS011;7076;51.280;12.584;2023-01-28T09:03:09;4.20;;;1.80;;
14001;SDS011;7076;51.280;12.584;2023-01-28T09:08:13;5.80;;;1.43;;
14001;SDS011;7076;51.280;12.584;2023-01-28T09:13:17;1.63;;;1.37;;
14001;SDS011;7076;51.280;12.584;2023-01-28T09:18:20;4.23;;;1.57;;
14001;SDS011;7076;51.280;12.584;2023-01-28T09:23:23;2.00;;;1.23;;
14001;SDS011;7076;51.280;12.584;2023-01-28T09:28:27;2.00;;;1.37;;
14001;SDS011;7076;51.280;12.584;2023-01-28T09:33:31;4.07;;;2.00;;
14001;SDS011;7076;51.280;12.584;2023-01-28T09:38:33;3.00;;;1.70;;
14001;SDS011;7076;51.280;12.584;2023-01-28T09:43:44;2.77;;;1.40;;
14001;SDS011;7076;51.280;12.584;2023-01-28T09:48:52;3.17;;;1.47;;
14001;SDS011;7076;51.280;12.584;2023-01-28T09:53:56;3.87;;;1.47;;
14001;SDS011;7076;51.280;12.584;2023-01-28T09:59:04;4.40;;;1.50;;
14001;SDS011;7076;51.280;12.584;2023-01-28T10:04:17;3.13;;;1.00;;
14001;SDS011;7076;51.280;12.584;2023-01-28T10:09:27;1.40;;;1.13;;
14001;SDS011;7076;51.280;12.584;2023-01-28T10:14:40;2.83;;;0.93;;
14001;SDS011;7076;51.280;12.584;2023-01-28T10:19:50;2.27;;;0.87;;
14001;SDS011;7076;51.280;12.584;2023-01-28T10:24:56;2.13;;;1.07;;
14001;SDS011;7076;51.280;12.584;2023-01-28T10:30:14;2.17;;;1.10;;
14001;SDS011;7076;51.280;12.584;2023-01-28T10:35:19;3.10;;;1.43;;
14001;SDS011;7076;51.280;12.584;2023-01-28T10:40:22;2.03;;;1.20;;
14001;SDS011;7076;51.280;12.584;2023-01-28T10:45:27;1.80;;;0.97;;
14001;SDS011;7076;51.280;12.584;2023-01-28T10:50:32;2.23;;;1.23;;
14001;SDS011;7076;51.280;12.584;2023-01-28T10:55:37;4.73;;;1.20;;
14001;SDS011;7076;51.280;12.584;2023-01-28T11:00:52;6.87;;;3.67;;
14001;SDS011;7076;51.280;12.584;2023-01-28T11:05:56;1.37;;;1.27;;
14001;SDS011;7076;51.280;12.584;2023-01-28T11:11:00;3.27;;;1.47;;
14001;SDS011;7076;51.280;12.584;2023-01-28T11:16:05;1.90;;;1.10;;
14001;SDS011;7076;51.280;12.584;2023-01-28T11:21:14;1.73;;;1.00;;
14001;SDS011;7076;51.280;12.584;2023-01-28T11:26:20;2.73;;;1.33;;
14001;SDS011;7076;51.280;12.584;2023-01-28T11:31:25;3.53;;;2.10;;
14001;SDS011;7076;51.280;12.584;2023-01-28T11:36:29;1.70;;;1.30;;
14001;SDS011;7076;51.280;12.584;2023-01-28T11:41:34;1.90;;;1.47;;
14001;SDS011;7076;51.280;12.584;2023-01-28T11:46:42;2.90;;;1.30;;
14001;SDS011;7076;51.280;12.584;2023-01-28T11:51:52;2.93;;;1.53;;
14001;SDS011;7076;51.280;12.584;2023-01-28T11:57:01;4.53;;;1.67;;
14001;SDS011;7076;51.280;12.584;2023-01-28T12:02:14;4.10;;;1.70;;
14001;SDS011;7076;51.280;12.584;2023-01-28T12:07:29;2.27;;;1.43;;
14001;SDS011;7076;51.280;12.584;2023-01-28T12:12:41;2.57;;;1.93;;
14001;SDS011;7076;51.280;12.584;2023-01-28T12:17:55;2.70;;;1.60;;
14001;SDS011;7076;51.280;12.584;2023-01-28T12:23:04;2.80;;;1.57;;
14001;SDS011;7076;51.280;12.584;2023-01-28T12:28:18;2.10;;;1.57;;
14001;SDS011;7076;51.280;12.584;2023-01-28T12:38:57;5.00;;;2.43;;
14001;SDS011;7076;51.280;12.584;2023-01-28T12:44:05;3.40;;;2.10;;
14001;SDS011;7076;51.280;12.584;2023-01-28T12:49:13;3.53;;;2.17;;
14001;SDS011;7076;51.280;12.584;2023-01-28T12:54:20;4.40;;;1.93;;
14001;SDS011;7076;51.280;12.584;2023-01-28T12:59:28;2.90;;;1.87;;
14001;SDS011;7076;51.280;12.584;2023-01-28T13:04:35;4.00;;;2.20;;
14001;SDS011;7076;51.280;12.584;2023-01-28T13:09:41;3.73;;;1.80;;
14001;SDS011;7076;51.280;12.584;2023-01-28T13:14:50;3.70;;;2.93;;
14001;SDS011;7076;51.280;12.584;2023-01-28T13:19:56;2.37;;;2.00;;
14001;SDS011;7076;51.280;12.584;2023-01-28T13:25:11;3.07;;;2.00;;
14001;SDS011;7076;51.280;12.584;2023-01-28T13:30:22;3.40;;;2.10;;
14001;SDS011;7076;51.280;12.584;2023-01-28T13:35:33;2.70;;;2.00;;
14001;SDS011;7076;51.280;12.584;2023-01-28T13:40:37;4.07;;;2.83;;
14001;SDS011;7076;51.280;12.584;2023-01-28T13:45:42;5.47;;;2.70;;
14001;SDS011;7076;51.280;12.584;2023-01-28T13:50:58;7.30;;;3.10;;
14001;SDS011;7076;51.280;12.584;2023-01-28T13:56:03;4.20;;;2.93;;
14001;SDS011;7076;51.280;12.584;2023-01-28T14:06:55;4.57;;;2.47;;
14001;SDS011;7076;51.280;12.584;2023-01-28T14:17:46;3.30;;;2.73;;
14001;SDS011;7076;51.280;12.584;2023-01-28T14:22:53;5.20;;;3.07;;
14001;SDS011;7076;51.280;12.584;2023-01-28T14:28:00;4.00;;;3.10;;
14001;SDS011;7076;51.280;12.584;2023-01-28T14:33:06;4.83;;;3.30;;
14001;SDS011;7076;51.280;12.584;2023-01-28T14:38:13;5.23;;;3.27;;
14001;SDS011;7076;51.280;12.584;2023-01-28T14:43:18;3.70;;;2.93;;
14001;SDS011;7076;51.280;12.584;2023-01-28T14:48:23;5.80;;;4.07;;
14001;SDS011;7076;51.280;12.584;2023-01-28T14:53:32;4.77;;;3.33;;
14001;SDS011;7076;51.280;12.584;2023-01-28T14:58:42;5.30;;;3.40;;
14001;SDS011;7076;51.280;12.584;2023-01-28T15:03:47;4.23;;;3.43;;
14001;SDS011;7076;51.280;12.584;2023-01-28T15:08:51;5.93;;;4.00;;
14001;SDS011;7076;51.280;12.584;2023-01-28T15:13:54;4.63;;;3.57;;
14001;SDS011;7076;51.280;12.584;2023-01-28T15:18:59;4.57;;;3.57;;
14001;SDS011;7076;51.280;12.584;2023-01-28T15:24:04;4.27;;;3.20;;
14001;SDS011;7076;51.280;12.584;2023-01-28T15:29:19;5.67;;;3.30;;
14001;SDS011;7076;51.280;12.584;2023-01-28T15:34:25;5.40;;;3.37;;
14001;SDS011;7076;51.280;12.584;2023-01-28T15:39:32;4.17;;;2.77;;
14001;SDS011;7076;51.280;12.584;2023-01-28T15:44:36;3.77;;;2.80;;
14001;SDS011;7076;51.280;12.584;2023-01-28T15:49:41;3.33;;;3.03;;
14001;SDS011;7076;51.280;12.584;2023-01-28T15:54:49;4.93;;;3.07;;
14001;SDS011;7076;51.280;12.584;2023-01-28T16:00:02;4.83;;;3.47;;
14001;SDS011;7076;51.280;12.584;2023-01-28T16:05:24;4.87;;;3.03;;
14001;SDS011;7076;51.280;12.584;2023-01-28T16:10:29;3.47;;;2.87;;
14001;SDS011;7076;51.280;12.584;2023-01-28T16:15:32;4.23;;;3.00;;
14001;SDS011;7076;51.280;12.584;2023-01-28T16:20:36;5.00;;;3.13;;
14001;SDS011;7076;51.280;12.584;2023-01-28T16:25:41;3.70;;;2.50;;
14001;SDS011;7076;51.280;12.584;2023-01-28T16:30:44;4.27;;;2.90;;
14001;SDS011;7076;51.280;12.584;2023-01-28T16:35:47;4.70;;;2.70;;
14001;SDS011;7076;51.280;12.584;2023-01-28T16:41:17;3.43;;;2.23;;
14001;SDS011;7076;51.280;12.584;2023-01-28T16:46:25;4.80;;;2.80;;
14001;SDS011;7076;51.280;12.584;2023-01-28T16:51:28;4.07;;;2.63;;
14001;SDS011;7076;51.280;12.584;2023-01-28T16:56:32;3.77;;;3.03;;
14001;SDS011;7076;51.280;12.584;2023-01-28T17:01:46;3.30;;;2.57;;
14001;SDS011;7076;51.280;12.584;2023-01-28T17:06:49;4.10;;;3.07;;
14001;SDS011;7076;51.280;12.584;2023-01-28T17:11:55;3.60;;;2.63;;
14001;SDS011;7076;51.280;12.584;2023-01-28T17:16:58;3.00;;;2.33;;
14001;SDS011;7076;51.280;12.584;2023-01-28T17:22:01;3.17;;;1.80;;
14001;SDS011;7076;51.280;12.584;2023-01-28T17:27:05;2.47;;;1.50;;
14001;SDS011;7076;51.280;12.584;2023-01-28T17:32:08;2.93;;;1.80;;
14001;SDS011;7076;51.280;12.584;2023-01-28T17:37:11;3.33;;;2.80;;
14001;SDS011;7076;51.280;12.584;2023-01-28T17:42:15;4.03;;;3.13;;
14001;SDS011;7076;51.280;12.584;2023-01-28T17:47:18;5.23;;;3.73;;
14001;SDS011;7076;51.280;12.584;2023-01-28T17:52:21;3.30;;;2.77;;
14001;SDS011;7076;51.280;12.584;2023-01-28T17:57:25;2.63;;;2.20;;
14001;SDS011;7076;51.280;12.584;2023-01-28T18:02:28;3.53;;;2.30;;
14001;SDS011;7076;51.280;12.584;2023-01-28T18:07:31;3.73;;;2.63;;
14001;SDS011;7076;51.280;12.584;2023-01-28T18:12:35;2.97;;;2.17;;
14001;SDS011;7076;51.280;12.584;2023-01-28T18:17:37;5.53;;;3.90;;
14001;SDS011;7076;51.280;12.584;2023-01-28T18:22:40;7.00;;;3.53;;
14001;SDS011;7076;51.280;12.584;2023-01-28T18:27:45;4.60;;;3.17;;
14001;SDS011;7076;51.280;12.584;2023-01-28T18:32:48;3.03;;;2.20;;
14001;SDS011;7076;51.280;12.584;2023-01-28T18:37:50;3.63;;;2.40;;
14001;SDS011;7076;51.280;12.584;2023-01-28T18:42:55;2.50;;;2.20;;
14001;SDS011;7076;51.280;12.584;2023-01-28T18:47:57;3.77;;;2.17;;
14001;SDS011;7076;51.280;12.584;2023-01-28T18:53:00;2.33;;;1.80;;
14001;SDS011;7076;51.280;12.584;2023-01-28T18:58:04;2.83;;;2.07;;
14001;SDS011;7076;51.280;12.584;2023-01-28T19:03:07;3.93;;;2.30;;
14001;SDS011;7076;51.280;12.584;2023-01-28T19:08:10;1.90;;;1.70;;
14001;SDS011;7076;51.280;12.584;2023-01-28T19:13:14;2.63;;;1.80;;
14001;SDS011;7076;51.280;12.584;2023-01-28T19:18:17;3.20;;;1.57;;
14001;SDS011;7076;51.280;12.584;2023-01-28T19:23:20;2.97;;;2.33;;
14001;SDS011;7076;51.280;12.584;2023-01-28T19:28:24;3.10;;;2.40;;
14001;SDS011;7076;51.280;12.584;2023-01-28T19:33:27;3.50;;;2.30;;
14001;SDS011;7076;51.280;12.584;2023-01-28T19:38:30;3.53;;;2.37;;
14001;SDS011;7076;51.280;12.584;2023-01-28T19:43:34;4.70;;;2.80;;
14001;SDS011;7076;51.280;12.584;2023-01-28T19:48:37;2.80;;;1.80;;
14001;SDS011;7076;51.280;12.584;2023-01-28T19:53:40;2.97;;;2.27;;
14001;SDS011;7076;51.280;12.584;2023-01-28T19:58:45;4.17;;;2.27;;
14001;SDS011;7076;51.280;12.584;2023-01-28T20:03:48;2.60;;;2.20;;
14001;SDS011;7076;51.280;12.584;2023-01-28T20:08:53;2.50;;;2.00;;
14001;SDS011;7076;51.280;12.584;2023-01-28T20:13:58;4.13;;;2.53;;
14001;SDS011;7076;51.280;12.584;2023-01-28T20:19:02;2.00;;;1.80;;
14001;SDS011;7076;51.280;12.584;2023-01-28T20:24:05;2.83;;;1.80;;
14001;SDS011;7076;51.280;12.584;2023-01-28T20:29:11;3.07;;;2.13;;
14001;SDS011;7076;51.280;12.584;2023-01-28T20:34:15;2.23;;;2.03;;
14001;SDS011;7076;51.280;12.584;2023-01-28T20:39:20;3.83;;;2.43;;
14001;SDS011;7076;51.280;12.584;2023-01-28T20:44:24;2.73;;;1.87;;
14001;SDS011;7076;51.280;12.584;2023-01-28T20:49:32;5.50;;;2.50;;
14001;SDS011;7076;51.280;12.584;2023-01-28T20:54:34;3.63;;;3.00;;
14001;SDS011;7076;51.280;12.584;2023-01-28T20:59:38;3.07;;;2.77;;
14001;SDS011;7076;51.280;12.584;2023-01-28T21:04:41;4.00;;;3.17;;
14001;SDS011;7076;51.280;12.584;2023-01-28T21:09:44;5.97;;;3.60;;
14001;SDS011;7076;51.280;12.584;2023-01-28T21:14:48;7.20;;;3.60;;
14001;SDS011;7076;51.280;12.584;2023-01-28T21:19:51;4.77;;;3.87;;
14001;SDS011;7076;51.280;12.584;2023-01-28T21:24:54;5.97;;;4.03;;
14001;SDS011;7076;51.280;12.584;2023-01-28T21:29:58;5.37;;;3.30;;
14001;SDS011;7076;51.280;12.584;2023-01-28T21:35:01;4.77;;;2.83;;
14001;SDS011;7076;51.280;12.584;2023-01-28T21:40:04;4.03;;;3.00;;
14001;SDS011;7076;51.280;12.584;2023-01-28T21:45:09;4.80;;;3.57;;
14001;SDS011;7076;51.280;12.584;2023-01-28T21:50:13;4.37;;;2.80;;
14001;SDS011;7076;51.280;12.584;2023-01-28T21:55:16;2.63;;;2.07;;
14001;SDS011;7076;51.280;12.584;2023-01-28T22:00:21;2.17;;;1.90;;
14001;SDS011;7076;51.280;12.584;2023-01-28T22:05:24;3.10;;;1.93;;
14001;SDS011;7076;51.280;12.584;2023-01-28T22:10:27;4.70;;;2.20;;
14001;SDS011;7076;51.280;12.584;2023-01-28T22:15:32;2.57;;;2.20;;
14001;SDS011;7076;51.280;12.584;2023-01-28T22:20:35;3.20;;;2.60;;
14001;SDS011;7076;51.280;12.584;2023-01-28T22:25:37;3.57;;;2.53;;
14001;SDS011;7076;51.280;12.584;2023-01-28T22:30:41;3.60;;;2.37;;
14001;SDS011;7076;51.280;12.584;2023-01-28T22:35:44;3.37;;;2.63;;
14001;SDS011;7076;51.280;12.584;2023-01-28T22:40:47;3.30;;;2.50;;
14001;SDS011;7076;51.280;12.584;2023-01-28T22:45:57;3.17;;;2.60;;
14001;SDS011;7076;51.280;12.584;2023-01-28T22:51:00;2.67;;;2.33;;
14001;SDS011;7076;51.280;12.584;2023-01-28T22:56:04;2.63;;;2.20;;
14001;SDS011;7076;51.280;12.584;2023-01-28T23:01:09;2.83;;;1.80;;
14001;SDS011;7076;51.280;12.584;2023-01-28T23:06:16;2.30;;;1.80;;
14001;SDS011;7076;51.280;12.584;2023-01-28T23:11:20;2.97;;;1.80;;
14001;SDS011;7076;51.280;12.584;2023-01-28T23:16:30;3.47;;;1.90;;
14001;SDS011;7076;51.280;12.584;2023-01-28T23:21:51;1.70;;;1.60;;
14001;SDS011;7076;51.280;12.584;2023-01-28T23:27:11;2.33;;;2.00;;
14001;SDS011;7076;51.280;12.584;2023-01-28T23:32:15;4.77;;;2.30;;
14001;SDS011;7076;51.280;12.584;2023-01-28T23:37:18;2.30;;;2.10;;
14001;SDS011;7076;51.280;12.584;2023-01-28T23:42:21;4.13;;;1.90;;
14001;SDS011;7076;51.280;12.584;2023-01-28T23:47:27;3.17;;;2.30;;
14001;SDS011;7076;51.280;12.584;2023-01-28T23:52:30;1.90;;;1.80;;
14001;SDS011;7076;51.280;12.584;2023-01-28T23:57:34;2.43;;;1.97;;
